createdAt,value
2019-05-12T00:02:13.034Z,91.60
2019-05-12T00:04:41.380Z,91.00
2019-05-12T00:07:08.964Z,91.00
2019-05-12T00:09:38.817Z,90.60
2019-05-12T00:12:04.932Z,90.60
2019-05-12T00:14:32.506Z,90.20
2019-05-12T00:17:00.123Z,90.20
2019-05-12T00:19:28.489Z,90.20
2019-05-12T00:21:55.285Z,90.00
2019-05-12T00:24:22.899Z,90.00
2019-05-12T00:26:50.481Z,90.10
2019-05-12T00:29:19.421Z,90.40
2019-05-12T00:31:47.776Z,90.40
2019-05-12T00:34:15.376Z,90.70
2019-05-12T00:36:42.995Z,90.70
2019-05-12T00:39:10.572Z,90.80
2019-05-12T00:41:38.926Z,91.40
2019-05-12T00:44:05.781Z,91.10
2019-05-12T00:46:33.355Z,91.10
2019-05-12T00:49:00.931Z,91.20
2019-05-12T00:51:29.000Z,91.30
2019-05-12T00:53:57.995Z,91.30
2019-05-12T00:56:24.475Z,91.30
2019-05-12T00:58:52.405Z,91.30
2019-05-12T01:01:19.987Z,91.30
2019-05-12T01:03:48.385Z,91.30
2019-05-12T01:06:17.712Z,91.30
2019-05-12T01:08:43.205Z,91.40
2019-05-12T01:11:10.784Z,91.50
2019-05-12T01:13:38.395Z,91.60
2019-05-12T01:16:07.971Z,91.70
2019-05-12T01:18:33.556Z,91.70
2019-05-12T01:21:01.936Z,91.70
2019-05-12T01:23:30.278Z,91.70
2019-05-12T01:25:58.511Z,91.70
2019-05-12T01:28:27.691Z,91.60
2019-05-12T01:30:53.086Z,91.60
2019-05-12T01:33:20.669Z,91.60
2019-05-12T01:35:48.474Z,91.50
2019-05-12T01:38:18.212Z,91.20
2019-05-12T01:40:44.363Z,91.20
2019-05-12T01:43:11.981Z,91.20
2019-05-12T01:45:39.555Z,91.20
2019-05-12T01:48:08.894Z,91.30
2019-05-12T01:50:34.741Z,91.30
2019-05-12T01:53:02.324Z,91.50
2019-05-12T01:55:29.907Z,92.00
2019-05-12T01:57:57.983Z,91.60
2019-05-12T02:00:28.443Z,91.70
2019-05-12T02:02:53.495Z,91.70
2019-05-12T02:05:21.078Z,91.80
2019-05-12T02:07:48.650Z,91.80
2019-05-12T02:10:18.035Z,91.80
2019-05-12T02:12:43.862Z,91.70
2019-05-12T02:15:11.444Z,91.80
2019-05-12T02:17:39.309Z,91.40
2019-05-12T02:20:07.727Z,91.40
2019-05-12T02:22:34.211Z,91.40
2019-05-12T02:25:02.371Z,91.40
2019-05-12T02:27:29.951Z,91.40
2019-05-12T02:29:58.563Z,91.50
2019-05-12T02:32:35.616Z,91.70
2019-05-12T02:34:54.766Z,91.60
2019-05-12T02:37:21.130Z,91.70
2019-05-12T02:39:48.710Z,91.80
2019-05-12T02:42:17.055Z,92.00
2019-05-12T02:44:44.676Z,92.00
2019-05-12T02:47:12.250Z,92.00
2019-05-12T02:49:39.836Z,92.10
2019-05-12T02:52:07.437Z,92.20
2019-05-12T02:54:50.827Z,92.20
2019-05-12T02:57:04.336Z,92.20
2019-05-12T02:59:30.201Z,92.30
2019-05-12T03:01:57.795Z,92.30
2019-05-12T03:04:25.377Z,92.30
2019-05-12T03:06:54.839Z,92.50
2019-05-12T03:09:20.607Z,92.00
2019-05-12T03:11:48.190Z,91.90
2019-05-12T03:14:16.050Z,91.50
2019-05-12T03:16:45.376Z,91.40
2019-05-12T03:19:10.992Z,91.40
2019-05-12T03:21:38.571Z,91.30
2019-05-12T03:24:07.095Z,91.60
2019-05-12T03:26:34.923Z,91.50
2019-05-12T03:29:05.360Z,91.20
2019-05-12T03:31:32.091Z,90.70
2019-05-12T03:34:00.416Z,90.70
2019-05-12T03:36:31.971Z,90.80
2019-05-12T03:38:55.199Z,91.00
2019-05-12T03:41:25.031Z,90.80
2019-05-12T03:43:49.903Z,90.80
2019-05-12T03:46:18.329Z,90.90
2019-05-12T03:48:45.928Z,91.20
2019-05-12T03:51:15.456Z,91.00
2019-05-12T03:53:45.177Z,91.00
2019-05-12T03:56:10.238Z,91.10
2019-05-12T03:58:37.804Z,91.00
2019-05-12T04:01:05.442Z,91.10
2019-05-12T04:03:34.508Z,91.50
2019-05-12T04:06:00.600Z,91.50
2019-05-12T04:08:28.227Z,91.10
2019-05-12T04:10:55.817Z,91.10
2019-05-12T04:13:26.190Z,91.10
2019-05-12T04:15:51.000Z,91.10
2019-05-12T04:18:18.586Z,91.20
2019-05-12T04:20:46.230Z,91.20
2019-05-12T04:23:15.393Z,91.10
2019-05-12T04:25:54.748Z,91.30
2019-05-12T04:28:08.994Z,90.90
2019-05-12T04:30:36.582Z,90.90
2019-05-12T04:33:04.924Z,90.90
2019-05-12T04:35:34.839Z,90.70
2019-05-12T04:37:59.356Z,90.70
2019-05-12T04:40:26.938Z,90.70
2019-05-12T04:42:54.971Z,90.90
2019-05-12T04:45:25.236Z,91.00
2019-05-12T04:47:49.708Z,91.10
2019-05-12T04:50:17.317Z,91.20
2019-05-12T04:52:44.954Z,91.30
2019-05-12T04:55:14.980Z,91.30
2019-05-12T04:57:40.904Z,91.40
2019-05-12T05:00:08.488Z,91.40
2019-05-12T05:02:36.934Z,92.10
2019-05-12T05:05:05.371Z,92.00
2019-05-12T05:07:32.034Z,91.60
2019-05-12T05:09:59.647Z,91.60
2019-05-12T05:12:27.224Z,91.60
2019-05-12T05:14:54.980Z,91.60
2019-05-12T05:17:24.428Z,91.60
2019-05-12T05:19:50.003Z,91.70
2019-05-12T05:22:17.601Z,91.70
2019-05-12T05:24:45.211Z,91.80
2019-05-12T05:27:13.337Z,92.40
2019-05-12T05:29:40.419Z,92.10
2019-05-12T05:32:07.998Z,91.60
2019-05-12T05:34:35.582Z,91.40
2019-05-12T05:37:05.194Z,91.30
2019-05-12T05:39:35.707Z,91.30
2019-05-12T05:41:59.479Z,91.30
2019-05-12T05:44:29.114Z,91.30
2019-05-12T05:46:56.813Z,91.60
2019-05-12T05:49:23.937Z,91.30
2019-05-12T05:51:55.099Z,91.20
2019-05-12T05:54:25.165Z,91.20
2019-05-12T05:56:57.766Z,91.30
2019-05-12T05:59:15.691Z,91.30
2019-05-12T06:01:49.772Z,91.30
2019-05-12T06:04:14.052Z,91.20
2019-05-12T06:06:44.326Z,91.20
2019-05-12T06:09:07.450Z,91.00
2019-05-12T06:11:35.087Z,90.90
2019-05-12T06:14:11.055Z,90.60
2019-05-12T06:16:30.255Z,91.00
2019-05-12T06:18:58.650Z,90.90
2019-05-12T06:21:29.065Z,89.60
2019-05-12T06:23:54.568Z,89.50
2019-05-12T06:26:30.867Z,88.60
2019-05-12T06:28:50.076Z,87.40
2019-05-12T06:31:19.089Z,86.60
2019-05-12T06:33:45.301Z,85.40
2019-05-12T06:36:21.750Z,84.20
2019-05-12T06:38:40.680Z,83.00
2019-05-12T06:41:12.714Z,82.80
2019-05-12T06:43:39.549Z,82.20
2019-05-12T06:46:03.721Z,81.80
2019-05-12T06:48:33.088Z,81.10
2019-05-12T06:50:58.424Z,80.50
2019-05-12T06:53:30.894Z,80.30
2019-05-12T06:55:54.066Z,79.80
2019-05-12T06:58:27.561Z,80.70
2019-05-12T07:00:48.806Z,80.90
2019-05-12T07:03:19.312Z,79.60
2019-05-12T07:05:45.288Z,79.20
2019-05-12T07:08:11.619Z,79.20
2019-05-12T07:10:43.323Z,79.30
2019-05-12T07:13:06.767Z,77.40
2019-05-12T07:15:40.079Z,76.30
2019-05-12T07:18:04.282Z,77.00
2019-05-12T07:20:35.655Z,76.20
2019-05-12T07:22:58.491Z,75.50
2019-05-12T07:25:31.122Z,76.10
2019-05-12T07:28:00.082Z,75.70
2019-05-12T07:30:27.275Z,76.10
2019-05-12T07:32:59.687Z,75.80
2019-05-12T07:35:24.034Z,75.00
2019-05-12T07:37:50.059Z,74.40
2019-05-12T07:40:18.981Z,74.50
2019-05-12T07:42:45.260Z,74.80
2019-05-12T07:45:20.494Z,75.50
2019-05-12T07:47:40.794Z,74.70
2019-05-12T07:50:09.954Z,74.00
2019-05-12T07:52:35.955Z,72.90
2019-05-12T07:55:04.275Z,72.90
2019-05-12T07:57:34.510Z,72.50
2019-05-12T07:59:58.896Z,72.10
2019-05-12T08:02:31.762Z,72.00
2019-05-12T08:04:54.225Z,70.80
2019-05-12T08:07:28.301Z,71.60
2019-05-12T08:09:49.244Z,70.50
2019-05-12T08:12:20.954Z,70.30
2019-05-12T08:14:44.422Z,70.00
2019-05-12T08:17:18.672Z,69.90
2019-05-12T08:19:39.601Z,69.60
2019-05-12T08:22:07.491Z,69.60
2019-05-12T08:24:43.228Z,70.10
2019-05-12T08:27:08.602Z,70.70
2019-05-12T08:29:36.206Z,70.50
2019-05-12T08:32:03.881Z,70.20
2019-05-12T08:34:31.366Z,70.00
2019-05-12T08:36:59.541Z,69.40
2019-05-12T08:39:27.123Z,69.30
2019-05-12T08:41:55.469Z,69.40
2019-05-12T08:44:24.956Z,69.30
2019-05-12T08:46:52.186Z,68.80
2019-05-12T08:49:19.095Z,68.60
2019-05-12T08:51:49.639Z,68.50
2019-05-12T08:54:14.824Z,68.30
2019-05-12T08:56:43.625Z,68.00
2019-05-12T08:59:17.474Z,66.10
2019-05-12T09:01:38.443Z,66.10
2019-05-12T09:04:11.121Z,65.90
2019-05-12T09:06:34.290Z,65.50
2019-05-12T09:09:03.381Z,65.70
2019-05-12T09:11:29.774Z,65.00
2019-05-12T09:14:00.573Z,65.00
2019-05-12T09:16:25.164Z,65.40
2019-05-12T09:18:55.139Z,65.10
2019-05-12T09:21:25.307Z,64.70
2019-05-12T09:23:48.951Z,65.40
2019-05-12T09:26:18.674Z,66.00
2019-05-12T09:28:50.142Z,65.10
2019-05-12T09:31:14.069Z,64.50
2019-05-12T09:33:39.714Z,64.00
2019-05-12T09:36:11.465Z,63.80
2019-05-12T09:38:36.235Z,63.70
2019-05-12T09:41:05.396Z,62.80
2019-05-12T09:43:31.429Z,62.80
2019-05-12T09:45:59.007Z,62.60
2019-05-12T09:48:26.636Z,62.10
2019-05-12T09:51:00.255Z,60.70
2019-05-12T09:53:23.676Z,60.10
2019-05-12T09:55:49.990Z,59.90
2019-05-12T09:58:22.931Z,59.40
2019-05-12T10:00:45.149Z,59.20
2019-05-12T10:03:14.091Z,58.80
2019-05-12T10:05:41.579Z,58.80
2019-05-12T10:08:09.160Z,59.00
2019-05-12T10:10:40.278Z,57.00
2019-05-12T10:13:05.392Z,57.00
2019-05-12T10:15:33.262Z,56.90
2019-05-12T10:18:06.633Z,57.10
2019-05-12T10:20:29.142Z,57.00
2019-05-12T10:22:56.542Z,57.10
2019-05-12T10:25:28.386Z,57.30
2019-05-12T10:27:53.254Z,57.60
2019-05-12T10:30:19.354Z,57.00
2019-05-12T10:32:47.742Z,54.80
2019-05-12T10:35:21.175Z,54.40
2019-05-12T10:37:46.849Z,54.40
2019-05-12T10:42:13.714Z,54.90
2019-05-12T10:44:40.946Z,55.90
2019-05-12T10:47:07.996Z,55.60
2019-05-12T10:49:35.934Z,54.80
2019-05-12T10:52:03.916Z,52.70
2019-05-12T10:54:31.100Z,53.40
2019-05-12T10:56:59.475Z,51.70
2019-05-12T10:59:32.984Z,51.60
2019-05-12T11:01:54.689Z,51.50
2019-05-12T11:04:33.256Z,51.30
2019-05-12T11:06:50.670Z,52.10
2019-05-12T11:09:21.308Z,52.10
2019-05-12T11:11:48.456Z,52.10
2019-05-12T11:14:20.192Z,52.50
2019-05-12T11:16:44.606Z,52.00
2019-05-12T11:19:13.723Z,50.60
2019-05-12T11:21:39.666Z,50.60
2019-05-12T11:24:07.243Z,50.80
2019-05-12T11:26:35.009Z,51.60
2019-05-12T11:29:03.780Z,51.90
2019-05-12T11:31:30.172Z,50.50
2019-05-12T11:33:58.359Z,50.90
2019-05-12T11:36:25.984Z,52.70
2019-05-12T11:38:53.576Z,51.40
2019-05-12T11:41:21.209Z,50.90
2019-05-12T11:43:49.557Z,51.10
2019-05-12T11:46:17.143Z,51.10
2019-05-12T11:48:46.346Z,51.30
2019-05-12T11:51:14.312Z,50.40
2019-05-12T11:53:39.955Z,49.60
2019-05-12T11:56:09.362Z,49.20
2019-05-12T11:58:35.928Z,49.20
2019-05-12T12:01:07.126Z,49.20
2019-05-12T12:03:31.150Z,49.60
2019-05-12T12:05:58.737Z,49.00
2019-05-12T12:08:32.440Z,49.10
2019-05-12T12:10:54.723Z,49.30
2019-05-12T12:13:25.728Z,49.80
2019-05-12T12:15:50.656Z,49.80
2019-05-12T12:18:19.518Z,48.30
2019-05-12T12:20:47.096Z,48.20
2019-05-12T12:23:14.684Z,47.90
2019-05-12T12:25:43.066Z,48.10
2019-05-12T12:28:09.900Z,48.20
2019-05-12T12:30:38.244Z,48.50
2019-05-12T12:33:05.871Z,48.50
2019-05-12T12:35:34.572Z,48.80
2019-05-12T12:38:03.369Z,47.20
2019-05-12T12:40:28.902Z,47.10
2019-05-12T12:42:56.225Z,47.00
2019-05-12T12:45:30.327Z,46.90
2019-05-12T12:47:54.570Z,46.90
2019-05-12T12:50:26.316Z,46.70
2019-05-12T12:52:50.549Z,46.70
2019-05-12T12:55:18.136Z,46.80
2019-05-12T12:57:50.587Z,46.70
2019-05-12T13:00:15.050Z,46.60
2019-05-12T13:02:47.882Z,46.80
2019-05-12T13:05:09.313Z,45.40
2019-05-12T13:07:36.895Z,45.30
2019-05-12T13:10:09.164Z,45.30
2019-05-12T13:12:35.645Z,45.20
2019-05-12T13:15:01.202Z,45.30
2019-05-12T13:17:36.410Z,45.30
2019-05-12T13:19:58.710Z,45.40
2019-05-12T13:22:24.522Z,45.70
2019-05-12T13:24:53.131Z,45.90
2019-05-12T13:27:24.373Z,46.10
2019-05-12T13:29:46.788Z,46.50
2019-05-12T13:32:14.400Z,47.20
2019-05-12T13:34:43.014Z,48.20
2019-05-12T13:37:14.743Z,47.90
2019-05-12T13:39:37.188Z,47.70
2019-05-12T13:42:04.765Z,47.40
2019-05-12T13:44:36.393Z,47.10
2019-05-12T13:47:00.030Z,46.40
2019-05-12T13:49:30.113Z,45.40
2019-05-12T13:51:56.000Z,45.40
2019-05-12T13:54:26.104Z,44.90
2019-05-12T13:56:53.517Z,43.80
2019-05-12T13:59:21.378Z,44.20
2019-05-12T14:01:47.626Z,46.00
2019-05-12T14:04:15.262Z,46.00
2019-05-12T14:06:42.980Z,45.90
2019-05-12T14:09:10.561Z,46.10
2019-05-12T14:11:38.191Z,45.80
2019-05-12T14:14:11.467Z,45.30
2019-05-12T14:16:33.893Z,45.40
2019-05-12T14:19:03.522Z,45.50
2019-05-12T14:21:32.991Z,45.20
2019-05-12T14:23:56.908Z,44.70
2019-05-12T14:26:24.513Z,45.00
2019-05-12T14:28:53.342Z,44.20
2019-05-12T14:31:29.291Z,44.20
2019-05-12T14:33:48.082Z,44.10
2019-05-12T14:36:21.695Z,44.10
2019-05-12T14:38:43.704Z,44.30
2019-05-12T14:41:12.359Z,43.90
2019-05-12T14:43:38.863Z,44.40
2019-05-12T14:46:10.383Z,45.00
2019-05-12T14:48:35.000Z,44.90
2019-05-12T14:51:03.538Z,44.50
2019-05-12T14:53:38.245Z,44.50
2019-05-12T14:56:01.258Z,44.40
2019-05-12T14:58:29.611Z,44.50
2019-05-12T15:00:58.213Z,44.40
2019-05-12T15:03:24.808Z,45.00
2019-05-12T15:05:54.509Z,45.40
2019-05-12T15:08:21.421Z,44.40
2019-05-12T15:10:48.364Z,44.40
2019-05-12T15:13:17.158Z,44.30
2019-05-12T15:15:44.047Z,44.00
2019-05-12T15:18:13.812Z,44.30
2019-05-12T15:20:41.576Z,44.30
2019-05-12T15:23:07.615Z,45.00
2019-05-12T15:25:37.248Z,46.20
2019-05-12T15:28:04.077Z,46.10
2019-05-12T15:30:33.575Z,46.40
2019-05-12T15:32:59.106Z,46.90
2019-05-12T15:35:26.787Z,45.10
2019-05-12T15:37:55.105Z,44.60
2019-05-12T15:40:23.644Z,44.30
2019-05-12T15:42:49.567Z,43.30
2019-05-12T15:45:17.262Z,43.10
2019-05-12T15:47:45.157Z,43.50
2019-05-12T15:50:14.576Z,43.10
2019-05-12T15:52:42.459Z,43.20
2019-05-12T15:55:07.967Z,42.70
2019-05-12T15:57:35.560Z,42.50
2019-05-12T16:00:05.042Z,42.50
2019-05-12T16:02:30.837Z,42.80
2019-05-12T16:04:59.190Z,44.00
2019-05-12T16:07:29.677Z,44.00
2019-05-12T16:09:54.783Z,44.50
2019-05-12T16:12:24.384Z,45.00
2019-05-12T16:14:49.579Z,45.50
2019-05-12T16:17:24.762Z,44.60
2019-05-12T16:19:46.302Z,43.20
2019-05-12T16:22:14.092Z,43.20
2019-05-12T16:24:43.322Z,41.40
2019-05-12T16:27:09.896Z,40.60
2019-05-12T16:29:38.936Z,40.40
2019-05-12T16:32:05.106Z,40.20
2019-05-12T16:34:38.524Z,40.40
2019-05-12T16:37:03.898Z,40.90
2019-05-12T16:39:30.502Z,42.20
2019-05-12T16:42:00.158Z,42.80
2019-05-12T16:44:26.338Z,43.80
2019-05-12T16:46:53.495Z,43.70
2019-05-12T16:49:27.330Z,44.10
2019-05-12T16:51:48.891Z,44.50
2019-05-12T16:54:16.525Z,44.50
2019-05-12T16:56:44.106Z,44.70
2019-05-12T16:59:16.988Z,46.10
2019-05-12T17:01:39.908Z,46.00
2019-05-12T17:04:07.487Z,45.60
2019-05-12T17:06:38.556Z,44.60
2019-05-12T17:09:03.408Z,44.20
2019-05-12T17:11:31.235Z,44.30
2019-05-12T17:14:02.214Z,44.60
2019-05-12T17:16:25.475Z,44.60
2019-05-12T17:18:53.359Z,45.00
2019-05-12T17:21:20.695Z,45.30
2019-05-12T17:23:48.272Z,45.50
2019-05-12T17:26:15.871Z,45.70
2019-05-12T17:28:43.661Z,46.00
2019-05-12T17:31:11.077Z,46.30
2019-05-12T17:33:39.347Z,46.70
2019-05-12T17:36:11.820Z,47.30
2019-05-12T17:38:34.672Z,47.40
2019-05-12T17:41:03.699Z,47.70
2019-05-12T17:43:30.229Z,49.20
2019-05-12T17:46:01.306Z,48.70
2019-05-12T17:48:25.444Z,49.00
2019-05-12T17:50:53.970Z,49.20
2019-05-12T17:53:20.609Z,49.00
2019-05-12T17:55:52.961Z,49.70
2019-05-12T17:58:16.589Z,49.00
2019-05-12T18:00:47.629Z,48.80
2019-05-12T18:03:21.568Z,48.90
2019-05-12T18:05:42.351Z,47.80
2019-05-12T18:08:07.777Z,47.80
2019-05-12T18:10:38.002Z,47.60
2019-05-12T18:13:03.927Z,47.30
2019-05-12T18:15:36.128Z,46.30
2019-05-12T18:17:59.252Z,46.30
2019-05-12T18:20:31.246Z,46.20
2019-05-12T18:22:54.418Z,45.90
2019-05-12T18:25:30.489Z,46.70
2019-05-12T18:27:51.024Z,46.70
2019-05-12T18:30:19.342Z,47.50
2019-05-12T18:32:47.096Z,48.00
2019-05-12T18:35:14.674Z,47.90
2019-05-12T18:37:43.049Z,49.00
2019-05-12T18:40:10.624Z,48.90
2019-05-12T18:42:38.257Z,48.70
2019-05-12T18:45:12.166Z,49.10
2019-05-12T18:47:36.524Z,49.60
2019-05-12T18:50:04.351Z,49.60
2019-05-12T18:52:35.976Z,49.90
2019-05-12T18:54:57.450Z,50.40
2019-05-12T18:57:24.620Z,50.90
2019-05-12T18:59:57.172Z,51.10
2019-05-12T19:02:23.471Z,51.50
2019-05-12T19:04:47.440Z,51.30
2019-05-12T19:07:15.368Z,52.00
2019-05-12T19:09:46.925Z,52.20
2019-05-12T19:12:19.489Z,52.20
2019-05-12T19:14:40.457Z,52.20
2019-05-12T19:17:06.704Z,52.90
2019-05-12T19:19:35.127Z,52.60
2019-05-12T19:22:09.080Z,52.60
2019-05-12T19:24:30.292Z,52.70
2019-05-12T19:26:57.900Z,52.90
2019-05-12T19:29:29.681Z,53.40
2019-05-12T19:31:57.788Z,53.20
2019-05-12T19:34:25.183Z,53.40
2019-05-12T19:36:49.618Z,53.30
2019-05-12T19:39:15.967Z,53.40
2019-05-12T19:41:43.767Z,53.60
2019-05-12T19:44:13.447Z,54.00
2019-05-12T19:46:39.844Z,53.90
2019-05-12T19:49:07.092Z,54.10
2019-05-12T19:51:34.666Z,54.40
2019-05-12T19:54:03.468Z,54.70
2019-05-12T19:56:37.862Z,55.20
2019-05-12T19:58:58.243Z,55.20
2019-05-12T20:01:32.363Z,55.10
2019-05-12T20:03:55.877Z,55.10
2019-05-12T20:06:21.027Z,55.40
2019-05-12T20:08:54.995Z,55.80
2019-05-12T20:11:20.186Z,56.40
2019-05-12T20:13:44.544Z,56.10
2019-05-12T20:16:21.331Z,56.20
2019-05-12T20:18:43.073Z,56.70
2019-05-12T20:21:06.932Z,56.30
2019-05-12T20:23:34.506Z,56.40
2019-05-12T20:26:03.957Z,56.60
2019-05-12T20:28:30.479Z,57.20
2019-05-12T20:31:01.137Z,57.50
2019-05-12T20:33:26.402Z,57.50
2019-05-12T20:35:54.682Z,57.70
2019-05-12T20:38:27.124Z,57.90
2019-05-12T20:40:49.223Z,58.20
2019-05-12T20:43:16.805Z,58.50
2019-05-12T20:45:45.786Z,58.70
2019-05-12T20:48:14.274Z,59.00
2019-05-12T20:50:39.595Z,59.10
2019-05-12T20:53:07.164Z,59.40
2019-05-12T20:55:39.519Z,59.70
2019-05-12T20:58:04.475Z,61.30
2019-05-12T21:00:30.729Z,61.20
2019-05-12T21:02:58.633Z,62.10
2019-05-12T21:05:26.209Z,62.80
2019-05-12T21:07:55.774Z,63.40
2019-05-12T21:10:26.479Z,64.00
2019-05-12T21:12:50.184Z,64.60
2019-05-12T21:15:20.575Z,65.30
2019-05-12T21:17:52.187Z,65.90
2019-05-12T21:20:16.646Z,66.60
2019-05-12T21:22:43.410Z,67.20
2019-05-12T21:25:10.723Z,67.70
2019-05-12T21:27:36.827Z,68.60
2019-05-12T21:30:09.857Z,68.60
2019-05-12T21:32:33.933Z,68.90
2019-05-12T21:34:59.687Z,69.30
2019-05-12T21:37:27.199Z,69.70
2019-05-12T21:39:55.540Z,70.40
2019-05-12T21:42:25.076Z,70.30
2019-05-12T21:44:50.732Z,70.80
2019-05-12T21:47:18.301Z,71.20
2019-05-12T21:49:48.623Z,71.50
2019-05-12T21:52:13.744Z,72.00
2019-05-12T21:54:43.747Z,72.70
2019-05-12T21:57:09.435Z,72.70
2019-05-12T21:59:39.591Z,73.30
2019-05-12T22:02:05.359Z,73.30
2019-05-12T22:04:41.053Z,73.50
2019-05-12T22:07:00.530Z,73.80
2019-05-12T22:09:34.867Z,73.80
2019-05-12T22:11:56.336Z,74.10
2019-05-12T22:14:24.064Z,74.30
2019-05-12T22:16:50.988Z,74.60
2019-05-12T22:19:18.562Z,74.90
2019-05-12T22:21:49.428Z,75.20
2019-05-12T22:24:14.647Z,75.30
2019-05-12T22:26:44.167Z,75.40
2019-05-12T22:29:09.223Z,75.70
2019-05-12T22:31:38.606Z,76.80
2019-05-12T22:34:04.414Z,76.10
2019-05-12T22:36:33.638Z,76.10
2019-05-12T22:39:00.821Z,76.30
2019-05-12T22:41:30.384Z,76.50
2019-05-12T22:43:55.523Z,76.50
2019-05-12T22:46:31.060Z,76.50
2019-05-12T22:48:50.711Z,76.70
2019-05-12T22:51:23.714Z,77.00
2019-05-12T22:53:45.892Z,77.30
2019-05-12T22:56:18.047Z,78.00
2019-05-12T22:58:44.013Z,77.90
2019-05-12T23:01:09.416Z,78.10
2019-05-12T23:03:36.996Z,78.30
2019-05-12T23:06:20.375Z,78.50
2019-05-12T23:08:33.412Z,78.70
2019-05-12T23:10:59.771Z,79.00
2019-05-12T23:13:32.141Z,79.30
2019-05-12T23:15:54.969Z,79.40
2019-05-12T23:18:26.914Z,79.70
2019-05-12T23:20:50.124Z,79.90
2019-05-12T23:23:18.918Z,79.90
2019-05-12T23:25:45.879Z,80.00
2019-05-12T23:28:13.469Z,80.50
2019-05-12T23:30:43.640Z,79.80
2019-05-12T23:33:08.652Z,79.80
2019-05-12T23:35:39.349Z,80.20
2019-05-12T23:38:04.491Z,79.40
2019-05-12T23:40:31.422Z,79.40
2019-05-12T23:42:58.999Z,79.70
2019-05-12T23:45:26.607Z,79.90
2019-05-12T23:47:54.185Z,80.10
2019-05-12T23:50:23.970Z,80.30
2019-05-12T23:52:49.791Z,80.60
2019-05-12T23:55:17.372Z,80.70
2019-05-12T23:57:44.938Z,80.90
